Time;durP1;ratioP1;P1;durP2;ratioP2;P2;SDS_P1;SDS_P2;PMS_P1;PMS_P2;Temp;Humidity;BMP_temperature;BMP_pressure;BME280_temperature;BME280_humidity;BME280_pressure;Samples;Min_cycle;Max_cycle;Signal;HPM_P1;HPM_P2
2022/09/05 00:01:44;;;;;;;;;;;16.50;99.90;;;;;;4197554;28;20023;-61
2022/09/05 00:03:53;;;;;;;;;;;16.40;99.90;;;;;;4214215;28;19931;-61
2022/09/05 00:06:04;;;;;;;;;;;16.40;99.90;;;;;;4196500;28;20015;-61
2022/09/05 00:08:32;;;;;;;;;;;16.40;99.90;;;;;;4205955;28;19930;-61
2022/09/05 00:10:46;;;;;;;;;;;16.50;99.90;;;;;;4214222;28;19934;-61
2022/09/05 00:13:11;;;;;;;;;;;16.60;99.90;;;;;;4214247;28;20264;-60
2022/09/05 00:15:16;;;;;;;;;;;16.60;99.90;;;;;;4199221;28;20444;-61
2022/09/05 00:17:23;;;;;;;;;;;16.60;99.90;;;;;;4207891;28;19927;-61
2022/09/05 00:19:46;;;;;;;;;;;16.60;99.90;;;;;;4230984;27;19928;-61
2022/09/05 00:22:11;;;;;;;;;;;16.50;99.90;;;;;;4197440;28;20311;-60
2022/09/05 00:24:54;;;;;;;;;;;16.40;99.90;;;;;;4210300;28;19928;-61
2022/09/05 00:27:23;;;;;;;;;;;16.30;99.90;;;;;;4214246;28;19928;-61
2022/09/05 00:29:39;;;;;;;;;;;16.30;99.90;;;;;;4214228;28;20288;-61
2022/09/05 00:32:07;;;;;;;;;;;16.30;99.90;;;;;;4196908;28;19928;-61
2022/09/05 00:34:18;;;;;;;;;;;16.20;99.90;;;;;;4209634;28;19931;-60
2022/09/05 00:36:34;;;;;;;;;;;16.20;99.90;;;;;;4213983;28;19924;-60
2022/09/05 00:38:59;;;;;;;;;;;16.20;99.90;;;;;;4213393;28;20337;-61
2022/09/05 00:41:04;;;;;;;;;;;16.30;99.90;;;;;;4196156;28;19928;-61
2022/09/05 00:43:14;;;;;;;;;;;16.20;99.90;;;;;;4205146;28;19924;-61
2022/09/05 00:45:24;;;;;;;;;;;16.20;99.90;;;;;;4214249;28;19993;-61
2022/09/05 00:47:37;;;;;;;;;;;16.20;99.90;;;;;;4204818;28;20387;-61
2022/09/05 00:50:00;;;;;;;;;;;16.20;99.90;;;;;;4213724;28;19974;-60
2022/09/05 00:52:19;;;;;;;;;;;16.20;99.90;;;;;;4214008;28;19928;-60
2022/09/05 00:54:22;;;;;;;;;;;16.20;99.90;;;;;;4213775;28;19971;-60
2022/09/05 00:56:47;;;;;;;;;;;16.20;99.90;;;;;;4213518;28;19931;-60
2022/09/05 00:58:55;;;;;;;;;;;16.20;99.90;;;;;;4213557;28;20002;-60
2022/09/05 01:01:03;;;;;;;;;;;16.20;99.90;;;;;;4213364;28;19977;-61
2022/09/05 01:03:28;;;;;;;;;;;16.20;99.90;;;;;;4196552;28;19931;-61
2022/09/05 01:05:35;;;;;;;;;;;16.20;99.90;;;;;;4205214;28;19924;-60
2022/09/05 01:07:49;;;;;;;;;;;16.30;99.90;;;;;;4213504;28;19962;-61
2022/09/05 01:10:02;;;;;;;;;;;16.30;99.90;;;;;;4196572;28;19956;-60
2022/09/05 01:12:34;;;;;;;;;;;16.20;99.90;;;;;;4206376;28;19925;-61
2022/09/05 01:14:36;;;;;;;;;;;16.10;99.90;;;;;;4187043;28;19995;-60
2022/09/05 01:16:56;;;;;;;;;;;16.10;99.90;;;;;;4211931;28;20303;-60
2022/09/05 01:19:05;;;;;;;;;;;16.10;99.90;;;;;;4213578;28;19924;-60
2022/09/05 01:21:19;;;;;;;;;;;16.00;99.90;;;;;;4213216;28;19974;-60
2022/09/05 01:23:39;;;;;;;;;;;16.00;99.90;;;;;;4213427;28;19924;-61
2022/09/05 01:25:59;;;;;;;;;;;15.90;99.90;;;;;;4196439;28;19924;-60
2022/09/05 01:28:25;;;;;;;;;;;15.90;99.90;;;;;;4206082;28;19928;-60
2022/09/05 01:31:04;;;;;;;;;;;15.90;99.90;;;;;;4206455;28;20332;-60
2022/09/05 01:33:09;;;;;;;;;;;15.90;99.90;;;;;;4196412;28;19931;-60
2022/09/05 01:35:24;;;;;;;;;;;15.90;99.90;;;;;;4212420;28;19928;-60
2022/09/05 01:37:46;;;;;;;;;;;15.90;99.90;;;;;;4212549;28;20376;-60
2022/09/05 01:39:51;;;;;;;;;;;15.90;99.90;;;;;;4212449;28;19929;-60
2022/09/05 01:42:31;;;;;;;;;;;15.90;99.90;;;;;;4212982;28;19924;-60
2022/09/05 01:44:54;;;;;;;;;;;15.90;99.90;;;;;;4191347;28;19928;-60
2022/09/05 01:46:56;;;;;;;;;;;15.90;99.90;;;;;;4212595;28;19977;-60
2022/09/05 01:49:08;;;;;;;;;;;15.90;99.90;;;;;;4212464;28;19935;-60
2022/09/05 01:51:29;;;;;;;;;;;15.80;99.90;;;;;;4212496;28;20287;-60
2022/09/05 01:53:37;;;;;;;;;;;15.80;99.90;;;;;;4212637;28;19932;-60
2022/09/05 01:55:57;;;;;;;;;;;15.80;99.90;;;;;;4212819;28;20371;-61
2022/09/05 01:58:22;;;;;;;;;;;15.80;99.90;;;;;;4212800;28;19966;-61
2022/09/05 02:00:39;;;;;;;;;;;15.80;99.90;;;;;;4212459;28;20383;-61
2022/09/05 02:02:46;;;;;;;;;;;15.70;99.90;;;;;;4212637;28;20366;-60
2022/09/05 02:05:14;;;;;;;;;;;15.70;99.90;;;;;;4212512;28;19935;-60
2022/09/05 02:07:46;;;;;;;;;;;15.70;99.90;;;;;;4196001;28;19964;-61
2022/09/05 02:09:54;;;;;;;;;;;15.80;99.90;;;;;;4213075;28;20419;-60
2022/09/05 02:11:59;;;;;;;;;;;15.80;99.90;;;;;;4225386;28;19932;-60
2022/09/05 02:14:18;;;;;;;;;;;15.80;99.90;;;;;;4212343;28;19924;-61
2022/09/05 02:16:37;;;;;;;;;;;15.80;99.90;;;;;;4212084;28;20346;-61
2022/09/05 02:18:45;;;;;;;;;;;15.70;99.90;;;;;;4212379;28;19924;-61
2022/09/05 02:20:55;;;;;;;;;;;15.60;99.90;;;;;;4212797;28;19928;-60
2022/09/05 02:23:06;;;;;;;;;;;15.40;99.90;;;;;;4212346;28;19935;-61
2022/09/05 02:25:29;;;;;;;;;;;15.40;99.90;;;;;;4212705;28;19924;-60
2022/09/05 02:28:14;;;;;;;;;;;15.30;99.90;;;;;;4212181;28;19950;-60
2022/09/05 02:30:17;;;;;;;;;;;15.20;99.90;;;;;;4192518;28;19928;-60
2022/09/05 02:32:40;;;;;;;;;;;15.20;99.90;;;;;;4211960;28;20332;-60
2022/09/05 02:35:02;;;;;;;;;;;15.20;99.90;;;;;;4212129;28;20030;-60
2022/09/05 02:37:17;;;;;;;;;;;15.40;99.90;;;;;;4211872;28;19932;-60
2022/09/05 02:39:31;;;;;;;;;;;15.50;99.90;;;;;;4212118;28;20422;-60
2022/09/05 02:42:16;;;;;;;;;;;15.60;99.90;;;;;;4212299;28;19982;-60
2022/09/05 02:44:44;;;;;;;;;;;15.50;99.90;;;;;;4212089;28;19928;-60
2022/09/05 02:47:06;;;;;;;;;;;15.40;99.90;;;;;;4211721;28;20007;-58
2022/09/05 02:49:13;;;;;;;;;;;15.40;99.90;;;;;;4211013;28;20022;-59
2022/09/05 02:51:35;;;;;;;;;;;15.30;99.90;;;;;;4212019;28;19963;-60
2022/09/05 02:54:05;;;;;;;;;;;15.30;99.90;;;;;;4203183;28;20018;-60
2022/09/05 02:56:45;;;;;;;;;;;15.30;99.90;;;;;;4197638;28;20024;-60
2022/09/05 02:59:21;;;;;;;;;;;15.20;99.90;;;;;;4212083;28;20027;-60
2022/09/05 03:01:50;;;;;;;;;;;15.20;99.90;;;;;;4195446;28;20416;-59
2022/09/05 03:03:56;;;;;;;;;;;15.20;99.90;;;;;;4206270;28;20022;-60
2022/09/05 03:06:12;;;;;;;;;;;15.30;99.90;;;;;;4214135;28;19928;-59
2022/09/05 03:08:20;;;;;;;;;;;15.30;99.90;;;;;;4212266;28;20023;-60
2022/09/05 03:10:40;;;;;;;;;;;15.20;99.90;;;;;;4211968;28;20011;-60
2022/09/05 03:13:07;;;;;;;;;;;15.20;99.90;;;;;;4212342;28;19928;-60
2022/09/05 03:15:15;;;;;;;;;;;15.10;99.90;;;;;;4212112;28;19928;-60
2022/09/05 03:17:23;;;;;;;;;;;15.10;99.90;;;;;;4195432;28;19928;-60
2022/09/05 03:19:49;;;;;;;;;;;15.00;99.90;;;;;;4202592;28;20413;-60
2022/09/05 03:22:01;;;;;;;;;;;15.00;99.90;;;;;;4210474;28;19977;-60
2022/09/05 03:24:18;;;;;;;;;;;15.00;99.90;;;;;;4193918;28;20015;-60
2022/09/05 03:26:25;;;;;;;;;;;15.00;99.90;;;;;;4198126;28;19974;-60
2022/09/05 03:29:02;;;;;;;;;;;15.10;99.90;;;;;;4196973;28;20505;-60
2022/09/05 03:31:23;;;;;;;;;;;15.20;99.90;;;;;;4195919;28;19990;-60
2022/09/05 03:33:30;;;;;;;;;;;15.30;99.90;;;;;;4195950;28;20414;-60
2022/09/05 03:35:51;;;;;;;;;;;15.20;99.90;;;;;;4196029;28;20439;-60
2022/09/05 03:38:10;;;;;;;;;;;15.20;99.90;;;;;;4196271;28;19928;-60
2022/09/05 03:40:15;;;;;;;;;;;15.20;99.90;;;;;;4196372;28;20022;-60
2022/09/05 03:42:40;;;;;;;;;;;15.30;99.90;;;;;;4196044;28;20469;-60
2022/09/05 03:44:52;;;;;;;;;;;15.30;99.90;;;;;;4196148;28;20019;-60
2022/09/05 03:47:09;;;;;;;;;;;15.30;99.90;;;;;;4195189;28;19960;-60
2022/09/05 03:49:27;;;;;;;;;;;15.20;99.90;;;;;;4195841;28;19932;-61
2022/09/05 03:51:48;;;;;;;;;;;15.10;99.90;;;;;;4200045;28;19924;-60
2022/09/05 03:54:28;;;;;;;;;;;15.00;99.90;;;;;;4195583;28;19928;-60
2022/09/05 03:56:53;;;;;;;;;;;14.90;99.90;;;;;;4201322;28;19924;-60
2022/09/05 03:59:34;;;;;;;;;;;14.80;99.90;;;;;;4179246;28;20390;-60
2022/09/05 04:01:38;;;;;;;;;;;14.70;99.90;;;;;;4195881;28;19925;-60
2022/09/05 04:04:07;;;;;;;;;;;14.80;99.90;;;;;;4179403;28;19928;-60
2022/09/05 04:06:33;;;;;;;;;;;14.70;99.90;;;;;;4198149;28;19936;-60
2022/09/05 04:08:55;;;;;;;;;;;14.70;99.90;;;;;;4203291;28;19964;-60
2022/09/05 04:11:01;;;;;;;;;;;14.80;99.90;;;;;;4197128;28;19932;-60
2022/09/05 04:13:19;;;;;;;;;;;14.70;99.90;;;;;;4210129;28;19932;-60
2022/09/05 04:15:34;;;;;;;;;;;14.70;99.90;;;;;;4209649;28;19924;-60
2022/09/05 04:17:42;;;;;;;;;;;14.60;99.90;;;;;;4219575;28;19935;-60
2022/09/05 04:19:49;;;;;;;;;;;14.70;99.90;;;;;;4214135;28;19970;-60
2022/09/05 04:21:57;;;;;;;;;;;14.60;99.90;;;;;;4214277;28;19928;-60
2022/09/05 04:23:59;;;;;;;;;;;14.60;99.90;;;;;;4213135;28;19928;-58
2022/09/05 04:26:09;;;;;;;;;;;14.60;99.90;;;;;;4214258;28;19928;-60
2022/09/05 04:28:44;;;;;;;;;;;14.60;99.90;;;;;;4213871;28;20291;-60
2022/09/05 04:30:57;;;;;;;;;;;14.50;99.90;;;;;;4178394;28;19928;-60
2022/09/05 04:32:59;;;;;;;;;;;14.50;99.90;;;;;;4178735;28;20427;-60
2022/09/05 04:35:17;;;;;;;;;;;14.40;99.90;;;;;;4178389;28;19925;-61
2022/09/05 04:37:36;;;;;;;;;;;14.40;99.90;;;;;;4178246;28;20355;-60
2022/09/05 04:39:48;;;;;;;;;;;14.30;99.90;;;;;;4178355;28;20032;-60
2022/09/05 04:42:09;;;;;;;;;;;14.30;99.90;;;;;;4178356;28;19971;-60
2022/09/05 04:44:25;;;;;;;;;;;14.30;99.90;;;;;;4177967;28;19925;-60
2022/09/05 04:46:35;;;;;;;;;;;14.30;99.90;;;;;;4178100;28;19929;-59
2022/09/05 04:48:49;;;;;;;;;;;14.30;99.90;;;;;;4172705;28;19964;-60
2022/09/05 04:51:00;;;;;;;;;;;14.40;99.90;;;;;;4178252;28;19933;-61
2022/09/05 04:53:22;;;;;;;;;;;14.50;99.90;;;;;;4178181;28;19964;-60
2022/09/05 04:55:27;;;;;;;;;;;14.40;99.90;;;;;;4178287;28;19928;-61
2022/09/05 04:57:41;;;;;;;;;;;14.30;99.90;;;;;;4175456;28;19925;-60
2022/09/05 04:59:47;;;;;;;;;;;14.30;99.90;;;;;;4177328;28;20448;-61
2022/09/05 05:02:27;;;;;;;;;;;14.30;99.90;;;;;;4181500;28;19925;-59
2022/09/05 05:04:49;;;;;;;;;;;14.30;99.90;;;;;;4150885;28;19971;-61
2022/09/05 05:07:31;;;;;;;;;;;14.40;99.90;;;;;;4203469;28;20359;-60
2022/09/05 05:09:43;;;;;;;;;;;14.40;99.90;;;;;;4205605;28;19928;-61
2022/09/05 05:11:45;;;;;;;;;;;14.40;99.90;;;;;;4213452;28;20011;-60
2022/09/05 05:14:07;;;;;;;;;;;14.40;99.90;;;;;;4213081;28;19930;-61
2022/09/05 05:16:31;;;;;;;;;;;14.50;99.90;;;;;;4213496;28;19967;-60
2022/09/05 05:19:05;;;;;;;;;;;14.40;99.90;;;;;;4211472;28;19974;-61
2022/09/05 05:21:24;;;;;;;;;;;14.50;99.90;;;;;;4213279;28;19924;-60
2022/09/05 05:23:31;;;;;;;;;;;14.50;99.90;;;;;;4213303;28;19928;-60
2022/09/05 05:25:40;;;;;;;;;;;14.50;99.90;;;;;;4212797;28;19935;-60
2022/09/05 05:27:42;;;;;;;;;;;14.50;99.90;;;;;;4212694;28;19924;-60
2022/09/05 05:29:47;;;;;;;;;;;14.60;99.90;;;;;;4212944;28;19928;-60
2022/09/05 05:31:53;;;;;;;;;;;14.60;99.90;;;;;;4212302;28;19927;-60
2022/09/05 05:33:58;;;;;;;;;;;14.60;99.90;;;;;;4212479;28;20027;-60
2022/09/05 05:36:01;;;;;;;;;;;14.60;99.90;;;;;;4213360;28;20023;-60
2022/09/05 05:38:32;;;;;;;;;;;14.60;99.90;;;;;;4212381;28;19935;-60
2022/09/05 05:40:35;;;;;;;;;;;14.70;99.90;;;;;;4177305;28;20011;-60
2022/09/05 05:42:45;;;;;;;;;;;14.60;99.90;;;;;;4204479;28;19977;-60
2022/09/05 05:44:50;;;;;;;;;;;14.70;99.90;;;;;;4195919;28;20377;-60
2022/09/05 05:46:58;;;;;;;;;;;14.80;99.90;;;;;;4199375;28;19935;-60
2022/09/05 05:49:06;;;;;;;;;;;14.90;99.90;;;;;;4211913;28;20374;-60
2022/09/05 05:51:10;;;;;;;;;;;15.00;99.90;;;;;;4212748;28;19928;-60
2022/09/05 05:53:30;;;;;;;;;;;15.10;99.90;;;;;;4212783;28;19924;-60
2022/09/05 05:55:50;;;;;;;;;;;15.20;99.90;;;;;;4221871;28;20439;-60
2022/09/05 05:58:12;;;;;;;;;;;15.20;99.90;;;;;;4220281;28;19932;-60
2022/09/05 06:00:29;;;;;;;;;;;15.20;99.90;;;;;;4212621;28;19932;-60
2022/09/05 06:02:49;;;;;;;;;;;15.30;99.90;;;;;;4201470;28;20386;-60
2022/09/05 06:05:26;;;;;;;;;;;15.30;99.90;;;;;;4212247;28;19935;-60
2022/09/05 06:07:47;;;;;;;;;;;15.30;99.90;;;;;;4211840;28;19930;-60
2022/09/05 06:10:28;;;;;;;;;;;15.30;99.90;;;;;;4212503;28;20372;-59
2022/09/05 06:13:20;;;;;;;;;;;15.30;99.90;;;;;;4212522;28;19959;-60
2022/09/05 06:15:51;;;;;;;;;;;15.40;99.90;;;;;;4212492;28;19924;-60
2022/09/05 06:17:57;;;;;;;;;;;15.50;99.90;;;;;;4212550;28;19928;-60
2022/09/05 06:20:19;;;;;;;;;;;15.60;99.90;;;;;;4212333;28;19980;-60
2022/09/05 06:23:07;;;;;;;;;;;15.60;99.90;;;;;;4212202;28;20026;-60
2022/09/05 06:25:29;;;;;;;;;;;15.60;99.90;;;;;;4198875;28;19931;-60
2022/09/05 06:27:49;;;;;;;;;;;15.70;99.90;;;;;;4212458;28;20338;-60
2022/09/05 06:30:18;;;;;;;;;;;15.70;99.90;;;;;;4212285;28;19924;-60
2022/09/05 06:32:32;;;;;;;;;;;15.80;99.90;;;;;;4211947;28;19939;-60
2022/09/05 06:35:12;;;;;;;;;;;15.90;99.90;;;;;;4212185;28;19932;-60
2022/09/05 06:37:33;;;;;;;;;;;15.90;99.90;;;;;;4176928;28;20031;-61
2022/09/05 06:39:53;;;;;;;;;;;16.20;99.90;;;;;;4176759;28;19936;-61
2022/09/05 06:41:55;;;;;;;;;;;16.20;99.90;;;;;;4185676;28;20653;-60
2022/09/05 06:44:00;;;;;;;;;;;16.40;99.90;;;;;;4211997;28;19967;-60
2022/09/05 06:46:02;;;;;;;;;;;16.60;99.90;;;;;;4212240;28;19931;-60
2022/09/05 06:48:27;;;;;;;;;;;16.80;99.90;;;;;;4211420;28;19977;-60
2022/09/05 06:50:50;;;;;;;;;;;16.90;99.90;;;;;;4200868;28;19925;-60
2022/09/05 06:53:25;;;;;;;;;;;17.10;99.90;;;;;;4195548;28;20194;-60
2022/09/05 06:55:36;;;;;;;;;;;17.30;99.90;;;;;;4205561;28;20023;-60
2022/09/05 06:57:38;;;;;;;;;;;17.30;99.90;;;;;;4212065;28;20413;-60
2022/09/05 06:59:44;;;;;;;;;;;17.30;99.90;;;;;;4213877;28;19928;-61
2022/09/05 07:01:53;;;;;;;;;;;17.50;99.90;;;;;;4215761;28;19924;-60
2022/09/05 07:04:02;;;;;;;;;;;17.60;99.90;;;;;;4215486;28;19928;-61
2022/09/05 07:06:31;;;;;;;;;;;17.80;99.90;;;;;;4215310;28;19924;-60
2022/09/05 07:08:59;;;;;;;;;;;17.80;99.90;;;;;;4215082;28;20010;-61
2022/09/05 07:11:10;;;;;;;;;;;18.00;99.90;;;;;;4208092;28;19979;-61
2022/09/05 07:13:22;;;;;;;;;;;18.20;99.90;;;;;;4198441;28;19924;-61
2022/09/05 07:15:37;;;;;;;;;;;18.40;99.90;;;;;;4198270;28;20284;-61
2022/09/05 07:17:44;;;;;;;;;;;18.50;99.90;;;;;;4207650;28;20438;-61
2022/09/05 07:20:15;;;;;;;;;;;18.60;99.90;;;;;;4215204;28;20365;-61
2022/09/05 07:22:31;;;;;;;;;;;18.60;99.90;;;;;;4215349;28;19924;-61
2022/09/05 07:24:50;;;;;;;;;;;18.80;99.90;;;;;;4214956;28;20303;-61
2022/09/05 07:26:57;;;;;;;;;;;18.90;99.90;;;;;;4213804;28;19928;-61
2022/09/05 07:29:02;;;;;;;;;;;19.00;99.90;;;;;;4214985;28;19951;-61
2022/09/05 07:31:07;;;;;;;;;;;19.00;99.90;;;;;;4214568;28;20047;-61
2022/09/05 07:33:09;;;;;;;;;;;19.30;99.90;;;;;;4214675;28;19924;-61
2022/09/05 07:35:19;;;;;;;;;;;20.10;99.90;;;;;;4215047;28;20291;-61
2022/09/05 07:37:22;;;;;;;;;;;20.60;99.90;;;;;;4214436;28;20324;-61
2022/09/05 07:39:29;;;;;;;;;;;20.50;99.90;;;;;;4214967;28;19924;-62
2022/09/05 07:41:33;;;;;;;;;;;20.40;99.90;;;;;;4214879;28;19924;-61
2022/09/05 07:43:40;;;;;;;;;;;20.40;99.90;;;;;;4213537;28;19928;-61
2022/09/05 07:45:46;;;;;;;;;;;20.40;99.90;;;;;;4215010;28;19928;-61
2022/09/05 07:47:56;;;;;;;;;;;20.30;99.90;;;;;;4224518;28;20440;-62
2022/09/05 07:50:03;;;;;;;;;;;20.20;99.90;;;;;;4218867;27;19924;-61
2022/09/05 07:52:26;;;;;;;;;;;20.20;99.90;;;;;;4213321;28;19928;-62
2022/09/05 07:54:51;;;;;;;;;;;20.30;99.90;;;;;;4220079;28;19978;-61
2022/09/05 07:57:35;;;;;;;;;;;20.70;99.90;;;;;;4197861;28;20051;-62
2022/09/05 07:59:53;;;;;;;;;;;20.90;99.90;;;;;;4212824;28;19939;-61
2022/09/05 08:01:57;;;;;;;;;;;20.80;99.90;;;;;;4214733;28;19932;-61
2022/09/05 08:03:59;;;;;;;;;;;20.90;99.90;;;;;;4213391;28;20425;-61
2022/09/05 08:06:10;;;;;;;;;;;21.40;99.90;;;;;;4214513;28;19990;-57
2022/09/05 08:08:15;;;;;;;;;;;21.60;99.90;;;;;;4214398;28;20453;-59
2022/09/05 08:10:20;;;;;;;;;;;21.60;99.90;;;;;;4214385;28;20002;-57
2022/09/05 08:12:38;;;;;;;;;;;21.80;99.90;;;;;;4214145;28;19928;-56
2022/09/05 08:15:07;;;;;;;;;;;21.80;99.90;;;;;;4214238;28;20384;-57
2022/09/05 08:17:16;;;;;;;;;;;22.10;99.90;;;;;;4214395;28;19974;-57
2022/09/05 08:19:38;;;;;;;;;;;22.20;99.90;;;;;;4214466;28;19928;-57
2022/09/05 08:21:46;;;;;;;;;;;22.50;99.90;;;;;;4192523;28;19934;-56
2022/09/05 08:24:02;;;;;;;;;;;22.70;99.90;;;;;;4214224;28;19928;-56
2022/09/05 08:26:31;;;;;;;;;;;22.80;99.90;;;;;;4214548;28;19928;-58
2022/09/05 08:28:54;;;;;;;;;;;23.10;99.90;;;;;;4214345;28;19943;-58
2022/09/05 08:31:18;;;;;;;;;;;23.10;99.90;;;;;;4213793;28;19982;-56
2022/09/05 08:33:26;;;;;;;;;;;23.10;99.90;;;;;;4214056;28;19924;-58
2022/09/05 08:35:37;;;;;;;;;;;22.90;99.90;;;;;;4213860;28;19934;-59
2022/09/05 08:37:39;;;;;;;;;;;22.90;99.90;;;;;;4213847;28;19924;-57
2022/09/05 08:39:44;;;;;;;;;;;23.30;99.90;;;;;;4213765;28;19971;-57
2022/09/05 08:41:49;;;;;;;;;;;23.50;99.90;;;;;;4214005;28;19934;-57
2022/09/05 08:44:14;;;;;;;;;;;23.70;99.90;;;;;;4222263;28;19924;-57
2022/09/05 08:46:39;;;;;;;;;;;23.90;99.90;;;;;;4223809;27;19951;-56
2022/09/05 08:49:08;;;;;;;;;;;24.10;99.90;;;;;;4214088;28;19924;-57
2022/09/05 08:51:23;;;;;;;;;;;24.20;99.90;;;;;;4196802;28;19934;-57
2022/09/05 08:53:44;;;;;;;;;;;24.40;99.90;;;;;;4207260;28;20014;-58
2022/09/05 08:55:53;;;;;;;;;;;24.30;99.90;;;;;;4210417;28;19925;-57
2022/09/05 08:58:16;;;;;;;;;;;24.50;99.90;;;;;;4196907;28;19928;-57
2022/09/05 09:00:19;;;;;;;;;;;24.50;99.90;;;;;;4195122;28;20442;-57
2022/09/05 09:02:39;;;;;;;;;;;24.50;99.90;;;;;;4196749;28;20368;-56
2022/09/05 09:04:51;;;;;;;;;;;24.50;99.90;;;;;;4196861;28;19928;-57
2022/09/05 09:07:06;;;;;;;;;;;24.70;99.90;;;;;;4196759;28;19979;-57
2022/09/05 09:09:30;;;;;;;;;;;25.00;99.90;;;;;;4197071;28;19928;-57
2022/09/05 09:11:38;;;;;;;;;;;25.30;99.90;;;;;;4196701;28;19925;-58
2022/09/05 09:13:51;;;;;;;;;;;25.50;99.90;;;;;;4196642;28;19982;-57
2022/09/05 09:15:59;;;;;;;;;;;25.60;99.90;;;;;;4196980;28;19952;-58
2022/09/05 09:18:08;;;;;;;;;;;25.70;99.90;;;;;;4202747;28;20027;-57
2022/09/05 09:20:13;;;;;;;;;;;26.10;99.90;;;;;;4206329;28;19930;-57
2022/09/05 09:22:24;;;;;;;;;;;26.30;99.90;;;;;;4210731;28;19932;-57
2022/09/05 09:24:38;;;;;;;;;;;26.10;99.90;;;;;;4196255;28;19932;-56
2022/09/05 09:26:46;;;;;;;;;;;25.70;99.90;;;;;;4196928;28;20419;-56
2022/09/05 09:28:51;;;;;;;;;;;25.70;99.90;;;;;;4202645;28;19928;-57
2022/09/05 09:30:58;;;;;;;;;;;26.00;99.90;;;;;;4202863;28;19928;-57
2022/09/05 09:33:05;;;;;;;;;;;26.30;99.90;;;;;;4198684;28;20018;-57
2022/09/05 09:35:07;;;;;;;;;;;26.20;99.90;;;;;;4209291;28;20028;-59
2022/09/05 09:37:18;;;;;;;;;;;26.20;99.90;;;;;;4204002;28;20027;-57
2022/09/05 09:39:27;;;;;;;;;;;26.30;99.90;;;;;;4200746;28;19959;-58
2022/09/05 09:41:48;;;;;;;;;;;26.50;99.90;;;;;;4229782;27;20115;-57
2022/09/05 09:44:22;;;;;;;;;;;26.60;99.90;;;;;;4219766;28;20299;-57
2022/09/05 09:46:33;;;;;;;;;;;26.60;99.90;;;;;;4212484;28;19935;-57
2022/09/05 09:48:46;;;;;;;;;;;26.80;99.90;;;;;;4196876;28;20407;-58
2022/09/05 09:50:51;;;;;;;;;;;27.20;99.90;;;;;;4210984;28;19977;-59
2022/09/05 09:53:18;;;;;;;;;;;27.20;99.90;;;;;;4208607;28;19985;-57
2022/09/05 09:55:39;;;;;;;;;;;27.00;99.90;;;;;;4210245;28;20311;-58
2022/09/05 09:57:54;;;;;;;;;;;26.70;99.90;;;;;;4210187;28;19928;-56
2022/09/05 10:00:09;;;;;;;;;;;27.10;99.90;;;;;;4202923;28;19935;-57
2022/09/05 10:02:33;;;;;;;;;;;27.50;99.90;;;;;;4211030;28;20310;-58
2022/09/05 10:05:14;;;;;;;;;;;27.90;99.90;;;;;;4205491;28;19924;-57
2022/09/05 10:07:53;;;;;;;;;;;27.90;99.90;;;;;;4200706;28;19939;-57
2022/09/05 10:10:48;;;;;;;;;;;27.70;99.90;;;;;;4207073;28;20398;-57
2022/09/05 10:13:19;;;;;;;;;;;27.60;99.90;;;;;;4197135;28;20003;-57
2022/09/05 10:15:27;;;;;;;;;;;27.40;99.90;;;;;;4209642;28;19924;-57
2022/09/05 10:17:41;;;;;;;;;;;27.80;99.90;;;;;;4198671;28;20042;-58
2022/09/05 10:19:56;;;;;;;;;;;27.70;99.80;;;;;;4212852;28;20307;-57
2022/09/05 10:22:32;;;;;;;;;;;27.90;99.90;;;;;;4212596;28;19928;-57
2022/09/05 10:24:55;;;;;;;;;;;27.90;99.90;;;;;;4207550;28;19943;-57
2022/09/05 10:27:11;;;;;;;;;;;27.70;99.30;;;;;;4204265;28;19932;-56
2022/09/05 10:29:32;;;;;;;;;;;27.90;99.10;;;;;;4210100;28;20334;-57
2022/09/05 10:31:41;;;;;;;;;;;27.90;99.40;;;;;;4211953;28;20337;-57
2022/09/05 10:34:17;;;;;;;;;;;28.00;99.10;;;;;;4210830;28;20387;-56
2022/09/05 10:36:42;;;;;;;;;;;28.10;99.30;;;;;;4217135;28;21291;-57
2022/09/05 10:38:45;;;;;;;;;;;27.80;99.90;;;;;;4214508;28;20019;-58
2022/09/05 10:40:49;;;;;;;;;;;28.20;99.90;;;;;;4211705;28;19932;-57
2022/09/05 10:43:22;;;;;;;;;;;28.10;98.60;;;;;;4216506;28;19931;-57
2022/09/05 10:45:44;;;;;;;;;;;28.20;98.30;;;;;;4204744;28;20031;-58
2022/09/05 10:47:50;;;;;;;;;;;28.50;98.60;;;;;;4210730;28;20007;-57
2022/09/05 10:50:08;;;;;;;;;;;28.60;99.90;;;;;;4208936;28;19974;-59
2022/09/05 10:52:12;;;;;;;;;;;28.90;98.90;;;;;;4203796;28;20714;-59
2022/09/05 10:54:22;;;;;;;;;;;28.60;97.30;;;;;;4214620;28;20024;-57
2022/09/05 10:56:28;;;;;;;;;;;28.10;97.00;;;;;;4216538;28;19980;-58
2022/09/05 10:58:36;;;;;;;;;;;28.20;97.40;;;;;;4207241;28;20399;-57
2022/09/05 11:00:57;;;;;;;;;;;28.30;97.20;;;;;;4206643;28;19929;-57
2022/09/05 11:03:21;;;;;;;;;;;28.70;98.40;;;;;;4207825;28;19974;-58
2022/09/05 11:05:23;;;;;;;;;;;28.90;98.10;;;;;;4206421;28;19931;-59
2022/09/05 11:07:35;;;;;;;;;;;28.90;97.40;;;;;;4201455;28;19928;-57
2022/09/05 11:09:49;;;;;;;;;;;29.40;98.10;;;;;;4206781;28;19925;-58
2022/09/05 11:12:05;;;;;;;;;;;29.30;95.00;;;;;;4211619;28;19971;-57
2022/09/05 11:14:19;;;;;;;;;;;29.20;97.50;;;;;;4211988;28;19967;-57
2022/09/05 11:16:30;;;;;;;;;;;29.70;99.30;;;;;;4212246;28;20383;-58
2022/09/05 11:18:38;;;;;;;;;;;29.40;96.10;;;;;;4211921;28;19928;-59
2022/09/05 11:21:08;;;;;;;;;;;29.20;95.20;;;;;;4212394;28;19931;-59
2022/09/05 11:23:16;;;;;;;;;;;29.40;97.40;;;;;;4195344;28;19929;-57
2022/09/05 11:25:20;;;;;;;;;;;29.80;98.50;;;;;;4204898;28;20379;-58
2022/09/05 11:27:44;;;;;;;;;;;29.70;95.80;;;;;;4211076;28;21335;-57
2022/09/05 11:29:48;;;;;;;;;;;29.30;95.60;;;;;;4207452;28;19962;-57
2022/09/05 11:31:59;;;;;;;;;;;29.10;95.10;;;;;;4207433;28;19954;-58
2022/09/05 11:34:48;;;;;;;;;;;29.40;94.10;;;;;;4212498;28;19924;-57
2022/09/05 11:37:31;;;;;;;;;;;29.50;94.00;;;;;;4201059;28;19931;-56
2022/09/05 11:40:05;;;;;;;;;;;29.80;93.50;;;;;;4197110;28;19929;-57
2022/09/05 11:42:44;;;;;;;;;;;29.90;94.90;;;;;;4195115;28;19937;-57
2022/09/05 11:44:55;;;;;;;;;;;30.10;95.20;;;;;;4207935;28;19935;-56
2022/09/05 11:46:57;;;;;;;;;;;30.40;92.80;;;;;;4213216;28;19962;-57
2022/09/05 11:49:02;;;;;;;;;;;29.50;92.80;;;;;;4214780;28;19924;-57
2022/09/05 11:51:35;;;;;;;;;;;29.50;92.60;;;;;;4214337;28;20043;-56
2022/09/05 11:53:52;;;;;;;;;;;29.50;91.70;;;;;;4214759;28;19973;-56
2022/09/05 11:56:12;;;;;;;;;;;29.50;93.00;;;;;;4214932;28;20379;-56
2022/09/05 11:58:20;;;;;;;;;;;29.50;92.90;;;;;;4203490;28;19940;-56
2022/09/05 12:00:48;;;;;;;;;;;29.60;92.60;;;;;;4214055;28;19936;-56
2022/09/05 12:03:08;;;;;;;;;;;30.10;95.80;;;;;;4201831;28;20278;-57
2022/09/05 12:05:19;;;;;;;;;;;30.40;93.70;;;;;;4214401;28;19924;-57
2022/09/05 12:07:44;;;;;;;;;;;30.20;93.30;;;;;;4219058;28;19924;-57
2022/09/05 12:09:59;;;;;;;;;;;30.40;94.40;;;;;;4212439;28;19924;-57
2022/09/05 12:12:23;;;;;;;;;;;29.80;92.80;;;;;;4212493;28;19930;-57
2022/09/05 12:14:58;;;;;;;;;;;29.90;96.20;;;;;;4213692;28;20019;-56
2022/09/05 12:17:10;;;;;;;;;;;30.70;95.00;;;;;;4214174;28;19931;-57
2022/09/05 12:19:20;;;;;;;;;;;30.50;93.80;;;;;;4207893;28;19935;-57
2022/09/05 12:21:26;;;;;;;;;;;30.70;93.60;;;;;;4197464;28;19931;-56
2022/09/05 12:23:28;;;;;;;;;;;30.80;94.10;;;;;;4212761;28;19973;-57
2022/09/05 12:25:53;;;;;;;;;;;30.20;92.30;;;;;;4213096;28;20371;-57
2022/09/05 12:28:22;;;;;;;;;;;30.50;94.10;;;;;;4200659;28;20310;-57
2022/09/05 12:30:45;;;;;;;;;;;30.60;93.70;;;;;;4213814;28;19930;-56
2022/09/05 12:33:19;;;;;;;;;;;30.50;95.00;;;;;;4203060;28;19929;-57
2022/09/05 12:35:47;;;;;;;;;;;30.90;93.70;;;;;;4197008;28;19928;-57
2022/09/05 12:38:27;;;;;;;;;;;30.60;93.70;;;;;;4202646;28;20372;-57
2022/09/05 12:41:08;;;;;;;;;;;30.40;94.60;;;;;;4212739;28;19935;-57
2022/09/05 12:43:30;;;;;;;;;;;30.60;95.00;;;;;;4213894;28;19928;-58
2022/09/05 12:46:02;;;;;;;;;;;30.10;94.40;;;;;;4213657;28;19932;-59
2022/09/05 12:48:26;;;;;;;;;;;30.20;93.70;;;;;;4211796;28;20368;-57
2022/09/05 12:50:55;;;;;;;;;;;30.30;94.00;;;;;;4208571;28;20295;-57
2022/09/05 12:53:05;;;;;;;;;;;30.30;94.10;;;;;;4213988;28;19981;-57
2022/09/05 12:55:16;;;;;;;;;;;30.00;93.20;;;;;;4199828;28;20392;-59
2022/09/05 12:57:38;;;;;;;;;;;30.40;94.30;;;;;;4203755;28;20384;-58
2022/09/05 13:00:09;;;;;;;;;;;30.50;94.10;;;;;;4203655;28;19924;-57
2022/09/05 13:02:32;;;;;;;;;;;30.20;93.60;;;;;;4213931;28;19958;-57
2022/09/05 13:05:00;;;;;;;;;;;30.60;93.60;;;;;;4213408;28;19932;-57
2022/09/05 13:07:10;;;;;;;;;;;30.60;93.20;;;;;;4213486;28;20040;-58
2022/09/05 13:09:15;;;;;;;;;;;30.90;94.40;;;;;;4212154;28;19928;-57
2022/09/05 13:11:18;;;;;;;;;;;31.30;92.10;;;;;;4213401;28;19971;-57
2022/09/05 13:13:46;;;;;;;;;;;30.70;92.50;;;;;;4213592;28;19947;-58
2022/09/05 13:16:11;;;;;;;;;;;30.80;92.30;;;;;;4213217;28;19967;-57
2022/09/05 13:18:27;;;;;;;;;;;31.20;92.10;;;;;;4213362;28;20419;-57